Time;durP1;ratioP1;P1;durP2;ratioP2;P2;SDS_P1;SDS_P2;PMS_P1;PMS_P2;Temp;Humidity;BMP_temperature;BMP_pressure;BME280_temperature;BME280_humidity;BME280_pressure;Samples;Min_cycle;Max_cycle;Signal;HPM_P1;HPM_P2
2024/03/12 00:01:31;;;;;;;;;48.67;38.33;;;;;10.22;100.00;98505.16;6305686;20;3616995;-47
2024/03/12 00:04:00;;;;;;;;;48.00;37.50;;;;;10.04;100.00;98501.25;6272295;20;2852723;-49
2024/03/12 00:06:30;;;;;;;;;47.00;39.00;;;;;10.12;100.00;98504.19;6277398;20;3596103;-48
2024/03/12 00:08:59;;;;;;;;;47.50;38.00;;;;;10.03;100.00;98511.13;6270815;20;2859711;-45
2024/03/12 00:11:29;;;;;;;;;46.67;38.67;;;;;9.87;100.00;98500.75;6271770;20;2853530;-49
2024/03/12 00:13:57;;;;;;;;;42.50;37.00;;;;;9.98;100.00;98507.06;6302284;20;2852404;-49
2024/03/12 00:16:26;;;;;;;;;46.50;39.50;;;;;9.95;100.00;98508.16;6270878;20;2856551;-48
2024/03/12 00:19:00;;;;;;;;;48.67;39.33;;;;;9.93;100.00;98503.94;6267483;20;2870239;-46
2024/03/12 00:21:30;;;;;;;;;46.67;40.00;;;;;10.09;100.00;98505.28;6295341;20;2862872;-46
2024/03/12 00:23:59;;;;;;;;;50.33;41.00;;;;;10.06;100.00;98505.53;6299552;20;3611727;-46
2024/03/12 00:26:31;;;;;;;;;48.00;40.00;;;;;10.05;100.00;98505.63;6301474;20;2847146;-45
2024/03/12 00:28:59;;;;;;;;;49.50;41.50;;;;;10.04;100.00;98509.31;6270655;20;2854445;-46
2024/03/12 00:31:29;;;;;;;;;47.00;40.33;;;;;9.82;100.00;98516.34;6266750;20;2853422;-46
2024/03/12 00:34:00;;;;;;;;;50.67;41.00;;;;;9.84;100.00;98511.69;6300889;20;3618384;-51
2024/03/12 00:36:30;;;;;;;;;52.33;42.00;;;;;9.93;100.00;98509.28;6297042;20;2855545;-50
2024/03/12 00:38:59;;;;;;;;;48.00;40.00;;;;;10.06;100.00;98516.25;6303937;20;3603594;-47
2024/03/12 00:41:29;;;;;;;;;47.00;40.67;;;;;9.80;100.00;98515.59;6308850;20;2860815;-48
2024/03/12 00:43:58;;;;;;;;;48.00;37.67;;;;;9.95;100.00;98515.38;6312867;20;3599234;-46
2024/03/12 00:46:28;;;;;;;;;49.67;41.33;;;;;9.80;100.00;98512.91;6278577;20;3608318;-48
2024/03/12 00:48:59;;;;;;;;;54.67;44.00;;;;;9.88;100.00;98518.53;6308197;20;3627328;-47
2024/03/12 00:51:29;;;;;;;;;51.67;43.33;;;;;9.70;100.00;98519.94;6305843;20;3610695;-47
2024/03/12 00:53:59;;;;;;;;;53.00;42.00;;;;;9.62;100.00;98511.66;6307806;20;3611745;-46
2024/03/12 00:56:27;;;;;;;;;53.67;43.00;;;;;9.51;100.00;98515.16;6311996;20;3592966;-45
2024/03/12 00:58:57;;;;;;;;;51.67;41.67;;;;;9.64;100.00;98520.44;6275122;20;3608696;-47
2024/03/12 01:01:26;;;;;;;;;46.33;39.67;;;;;9.59;100.00;98515.41;6308251;20;2859729;-46
2024/03/12 01:03:56;;;;;;;;;51.33;40.67;;;;;9.56;100.00;98520.16;6307254;20;2862002;-47
2024/03/12 01:06:26;;;;;;;;;52.67;43.00;;;;;9.61;100.00;98509.91;6306333;20;3613835;-47
2024/03/12 01:08:55;;;;;;;;;53.00;41.67;;;;;9.53;100.00;98526.63;6309554;20;2877502;-47
2024/03/12 01:11:25;;;;;;;;;53.00;44.00;;;;;9.53;100.00;98517.69;6307983;20;2855550;-47
2024/03/12 01:13:54;;;;;;;;;51.00;40.67;;;;;9.36;100.00;98517.16;6305122;20;3602350;-47
2024/03/12 01:16:24;;;;;;;;;50.00;39.67;;;;;9.41;100.00;98514.97;6307649;20;3609664;-47
2024/03/12 01:18:53;;;;;;;;;50.33;40.67;;;;;9.45;100.00;98520.94;6306146;20;2875430;-46
2024/03/12 01:21:23;;;;;;;;;51.33;41.00;;;;;9.44;100.00;98514.75;6303441;20;3625413;-46
2024/03/12 01:23:54;;;;;;;;;53.33;43.33;;;;;9.10;100.00;98513.75;6306174;20;3615982;-48
2024/03/12 01:26:25;;;;;;;;;53.00;41.67;;;;;9.29;100.00;98518.56;6305075;20;3626356;-47
2024/03/12 01:28:55;;;;;;;;;52.00;42.00;;;;;9.25;100.00;98518.94;6307362;20;3625384;-45
2024/03/12 01:31:24;;;;;;;;;47.67;40.67;;;;;9.12;100.00;98524.34;6306750;20;2854456;-48
2024/03/12 01:33:54;;;;;;;;;51.67;42.00;;;;;9.17;100.00;98516.84;6305434;20;3596118;-47
2024/03/12 01:36:34;;;;;;;;;54.00;44.00;;;;;8.97;100.00;98521.81;6306088;20;2860381;-47
2024/03/12 01:39:07;;;;;;;;;38.00;34.00;;;;;8.89;100.00;98524.22;6306523;20;2845197;-46
2024/03/12 01:41:41;;;;;;;;;49.00;40.67;;;;;8.84;100.00;98525.53;6275594;20;2863948;-47
2024/03/12 01:44:12;;;;;;;;;48.67;40.67;;;;;8.71;100.00;98525.56;6302759;20;2871419;-49
2024/03/12 01:46:42;;;;;;;;;48.00;40.00;;;;;8.71;100.00;98530.91;6304773;20;2861813;-48
2024/03/12 01:49:12;;;;;;;;;49.00;38.50;;;;;8.61;100.00;98535.22;6306579;20;2858691;-47
2024/03/12 01:51:42;;;;;;;;;46.00;39.67;;;;;8.95;100.00;98537.19;6273569;20;2867227;-47
2024/03/12 01:54:14;;;;;;;;;35.33;30.67;;;;;8.90;100.00;98535.78;6304107;20;2866260;-49
2024/03/12 01:56:43;;;;;;;;;27.50;24.50;;;;;8.88;100.00;98538.59;6307967;20;2842002;-46
2024/03/12 01:59:11;;;;;;;;;23.50;22.00;;;;;8.85;100.00;98543.31;6274314;20;2848232;-48
2024/03/12 02:01:40;;;;;;;;;20.00;19.00;;;;;8.73;100.00;98545.03;6275998;20;2831603;-49
2024/03/12 02:04:09;;;;;;;;;16.00;15.00;;;;;8.81;100.00;98544.50;6274164;20;2813924;-51
2024/03/12 02:06:38;;;;;;;;;15.00;14.00;;;;;8.80;100.00;98543.63;6276248;20;3529471;-47
2024/03/12 02:09:07;;;;;;;;;13.67;12.33;;;;;8.65;100.00;98550.09;6306026;20;2792022;-47
2024/03/12 02:11:36;;;;;;;;;14.33;12.67;;;;;8.63;100.00;98544.84;6307603;20;3517998;-50
2024/03/12 02:14:07;;;;;;;;;12.67;11.67;;;;;8.94;100.00;98548.81;6306746;20;2792091;-51
2024/03/12 02:16:36;;;;;;;;;11.50;8.50;;;;;9.04;100.00;98558.88;6304959;20;2764919;-49
2024/03/12 02:19:05;;;;;;;;;14.50;12.50;;;;;8.95;100.00;98561.25;6280162;20;2785730;-47
2024/03/12 02:21:34;;;;;;;;;24.00;23.00;;;;;8.69;100.00;98559.59;6275794;20;2838858;-50
2024/03/12 02:24:03;;;;;;;;;33.33;27.33;;;;;8.47;100.00;98554.94;6275533;20;3596140;-50
2024/03/12 02:26:33;;;;;;;;;14.00;14.00;;;;;8.46;100.00;98559.44;6308706;20;2791102;-50
2024/03/12 02:29:02;;;;;;;;;10.00;10.00;;;;;8.21;100.00;98560.25;6276000;20;2794151;-51
2024/03/12 02:31:31;;;;;;;;;11.60;10.20;;;;;8.06;100.00;98562.22;6330007;20;2789927;-47
2024/03/12 02:34:00;;;;;;;;;14.67;12.00;;;;;8.20;100.00;98557.72;6272883;20;2798216;-48
2024/03/12 02:36:28;;;;;;;;;10.33;10.33;;;;;8.37;100.00;98565.38;6306572;20;2789911;-47
2024/03/12 02:38:58;;;;;;;;;11.33;10.33;;;;;8.12;100.00;98567.13;6304000;20;2789944;-48
2024/03/12 02:41:27;;;;;;;;;10.00;10.00;;;;;7.99;100.00;98571.59;6305490;20;2787827;-50
2024/03/12 02:43:55;;;;;;;;;11.00;9.50;;;;;7.80;100.00;98565.81;6273091;20;2776546;-47
2024/03/12 02:46:23;;;;;;;;;9.00;8.00;;;;;7.66;100.00;98572.97;6277286;20;2759721;-46
2024/03/12 02:48:51;;;;;;;;;11.50;10.50;;;;;7.55;100.00;98572.81;6275476;20;2789858;-48
2024/03/12 02:51:19;;;;;;;;;9.00;9.00;;;;;7.51;100.00;98587.34;6276427;20;2756546;-48
2024/03/12 02:53:47;;;;;;;;;13.50;11.00;;;;;7.51;100.00;98587.34;6269697;20;2794014;-51
2024/03/12 02:56:18;;;;;;;;;8.67;8.00;;;;;7.33;100.00;98585.88;6317819;20;1806614;-47
2024/03/12 02:58:47;;;;;;;;;8.00;8.00;;;;;7.03;100.00;98584.28;6278341;20;2743110;-49
2024/03/12 03:01:16;;;;;;;;;13.80;9.60;;;;;6.81;100.00;98580.31;6298230;20;2767989;-45
2024/03/12 03:03:44;;;;;;;;;9.50;9.50;;;;;6.68;100.00;98582.03;6271348;20;2756543;-49
2024/03/12 03:06:12;;;;;;;;;12.50;9.50;;;;;6.73;100.00;98579.94;6274604;20;2773245;-54
2024/03/12 03:08:40;;;;;;;;;10.00;9.00;;;;;6.87;100.00;98589.72;6277122;20;2751451;-50
2024/03/12 03:11:08;;;;;;;;;13.00;11.50;;;;;6.97;100.00;98592.66;6271378;20;2802359;-50
2024/03/12 03:13:35;;;;;;;;;8.00;8.00;;;;;7.00;100.00;98590.66;6274470;20;2745193;-50
2024/03/12 03:16:04;;;;;;;;;8.00;8.00;;;;;7.03;100.00;98576.28;6308523;20;2742094;-51
2024/03/12 03:18:36;;;;;;;;;8.29;6.14;;;;;7.20;100.00;98584.03;6350543;20;1805189;-47
2024/03/12 03:21:04;;;;;;;;;10.50;9.00;;;;;7.22;100.00;98592.78;6300684;20;2763846;-48
2024/03/12 03:23:41;;;;;;;;;8.57;8.00;;;;;7.09;100.00;98591.03;6318372;20;1804235;-47
2024/03/12 03:26:09;;;;;;;;;8.00;8.00;;;;;6.78;100.00;98593.00;6308456;20;2735763;-49
2024/03/12 03:28:37;;;;;;;;;15.00;11.00;;;;;6.79;100.00;98592.91;6303467;20;2797191;-48
2024/03/12 03:31:05;;;;;;;;;8.00;5.00;;;;;6.98;100.00;98594.41;6278651;20;2748305;-49
2024/03/12 03:33:33;;;;;;;;;9.50;9.00;;;;;7.58;100.00;98599.34;6275035;20;2745113;-47
2024/03/12 03:36:01;;;;;;;;;11.00;8.00;;;;;7.51;100.00;98598.03;6276565;20;2763828;-49
2024/03/12 03:38:30;;;;;;;;;6.20;6.20;;;;;7.55;100.00;98604.84;6297544;20;2743023;-46
2024/03/12 03:40:58;;;;;;;;;9.50;8.50;;;;;7.36;100.00;98610.56;6305414;20;2758642;-48
2024/03/12 03:43:26;;;;;;;;;9.00;8.50;;;;;7.18;100.00;98601.09;6274690;20;2751420;-48
2024/03/12 03:45:54;;;;;;;;;12.50;8.50;;;;;7.23;100.00;98605.16;6273918;20;2764968;-48
2024/03/12 03:48:21;;;;;;;;;12.50;9.00;;;;;7.49;100.00;98610.63;6274571;20;2752458;-47
2024/03/12 03:50:49;;;;;;;;;11.00;10.00;;;;;7.49;100.00;98615.97;6271633;20;2771116;-49
2024/03/12 03:53:19;;;;;;;;;9.60;8.40;;;;;7.63;100.00;98621.22;6297874;20;2765014;-51
2024/03/12 03:55:49;;;;;;;;;17.67;16.33;;;;;7.36;100.00;98615.91;6305698;20;2820198;-48
2024/03/12 03:58:18;;;;;;;;;29.00;24.00;;;;;6.97;100.00;98616.69;6304479;20;2851383;-47
2024/03/12 04:00:46;;;;;;;;;17.00;16.50;;;;;6.81;100.00;98620.31;6272341;20;2823287;-48
2024/03/12 04:03:16;;;;;;;;;14.00;14.00;;;;;7.11;100.00;98616.66;6295159;20;2802508;-50
2024/03/12 04:05:45;;;;;;;;;12.67;12.67;;;;;7.31;100.00;98609.16;6274919;20;2794172;-48
2024/03/12 04:08:16;;;;;;;;;12.00;12.00;;;;;6.89;100.00;98605.66;6330215;20;2798224;-48
2024/03/12 04:10:43;;;;;;;;;12.50;12.50;;;;;7.01;100.00;98615.53;6274896;20;2794086;-50
2024/03/12 04:13:14;;;;;;;;;14.67;14.33;;;;;7.10;100.00;98619.41;6276544;20;3535783;-50
2024/03/12 04:15:43;;;;;;;;;16.00;13.67;;;;;7.22;100.00;98622.16;6308895;20;3524237;-50
2024/03/12 04:18:12;;;;;;;;;16.00;14.67;;;;;6.86;100.00;98621.84;6307067;20;2808906;-49
2024/03/12 04:20:40;;;;;;;;;15.00;13.00;;;;;6.62;100.00;98614.44;6310472;20;2821219;-48
2024/03/12 04:23:08;;;;;;;;;12.50;11.50;;;;;6.84;100.00;98623.75;6282085;20;2811746;-49
2024/03/12 04:25:36;;;;;;;;;14.00;12.00;;;;;6.92;100.00;98622.31;6275698;20;2794081;-52
2024/03/12 04:28:04;;;;;;;;;11.50;11.50;;;;;7.09;100.00;98631.06;6280087;20;2787936;-52
2024/03/12 04:30:34;;;;;;;;;19.67;18.33;;;;;6.78;100.00;98625.84;6277975;20;3559760;-48
2024/03/12 04:33:06;;;;;;;;;19.50;15.17;;;;;6.49;100.00;98624.16;6333672;20;2833719;-48
2024/03/12 04:35:33;;;;;;;;;18.00;17.00;;;;;6.93;100.00;98628.53;6309080;20;2825376;-51
2024/03/12 04:38:02;;;;;;;;;22.67;18.00;;;;;7.19;100.00;98638.38;6278248;20;3562856;-48
2024/03/12 04:40:31;;;;;;;;;17.00;14.50;;;;;6.80;100.00;98634.63;6278271;20;2812802;-48
2024/03/12 04:42:59;;;;;;;;;21.67;18.00;;;;;6.79;100.00;98634.72;6278759;20;3560661;-51
2024/03/12 04:45:27;;;;;;;;;17.00;17.00;;;;;6.99;100.00;98641.47;6308253;20;2826328;-49
2024/03/12 04:47:56;;;;;;;;;17.67;17.67;;;;;7.07;100.00;98639.16;6276480;20;3552379;-48
2024/03/12 04:50:25;;;;;;;;;24.00;20.00;;;;;7.01;100.00;98640.41;6279190;20;3570096;-48
2024/03/12 04:52:53;;;;;;;;;30.50;30.00;;;;;7.02;100.00;98638.59;6271907;20;2860731;-52
2024/03/12 04:55:23;;;;;;;;;35.00;31.67;;;;;7.20;100.00;98636.56;6276170;20;3606908;-48
2024/03/12 04:57:52;;;;;;;;;29.50;25.00;;;;;7.00;100.00;98637.81;6307375;20;2855624;-51
2024/03/12 05:00:22;;;;;;;;;37.00;27.67;;;;;7.17;100.00;98650.09;6278505;20;2861740;-51
2024/03/12 05:02:51;;;;;;;;;30.33;25.67;;;;;7.17;100.00;98655.44;6307972;20;2855139;-52
2024/03/12 05:05:21;;;;;;;;;31.00;25.67;;;;;7.28;100.00;98665.44;6308641;20;3578456;-53
2024/03/12 05:07:51;;;;;;;;;33.00;30.00;;;;;7.11;100.00;98656.69;6311290;20;3597529;-50
2024/03/12 05:10:21;;;;;;;;;38.00;34.00;;;;;7.17;100.00;98658.13;6275943;20;2850276;-48
2024/03/12 05:12:51;;;;;;;;;43.00;36.33;;;;;7.33;100.00;98658.84;6276992;20;3606575;-55
2024/03/12 05:15:21;;;;;;;;;47.67;39.67;;;;;7.71;100.00;98660.78;6304824;20;2857694;-48
2024/03/12 05:17:52;;;;;;;;;58.67;46.33;;;;;7.62;100.00;98659.59;6306973;20;3609737;-48
2024/03/12 05:20:23;;;;;;;;;54.67;43.00;;;;;7.47;100.00;98664.13;6307080;20;2863887;-49
2024/03/12 05:22:54;;;;;;;;;63.00;48.00;;;;;7.23;100.00;98666.56;6306770;20;2869125;-48
2024/03/12 05:25:26;;;;;;;;;65.67;50.00;;;;;7.24;100.00;98670.09;6305723;20;3645031;-48
2024/03/12 05:27:58;;;;;;;;;69.67;55.33;;;;;7.49;100.00;98669.38;6274895;20;3608660;-52
2024/03/12 05:30:28;;;;;;;;;67.67;50.33;;;;;7.48;100.00;98663.19;6304774;20;3636760;-48
2024/03/12 05:33:03;;;;;;;;;61.67;47.00;;;;;7.25;100.00;98675.34;6309150;20;3633572;-53
2024/03/12 05:35:33;;;;;;;;;63.00;50.00;;;;;7.23;100.00;98673.72;6306112;20;3623184;-50
2024/03/12 05:38:22;;;;;;;;;58.00;44.00;;;;;7.61;100.00;98668.59;6306464;20;2872316;-48
2024/03/12 05:41:04;;;;;;;;;55.67;43.33;;;;;8.12;100.00;98678.56;6307473;20;2856633;-48
2024/03/12 05:49:14;;;;;;;;;56.33;44.67;;;;;7.87;100.00;98679.34;6312818;20;3626591;-53
2024/03/12 05:51:44;;;;;;;;;53.33;40.33;;;;;7.52;100.00;98679.84;6276274;20;2859053;-51
2024/03/12 05:54:14;;;;;;;;;53.00;40.67;;;;;7.56;100.00;98678.72;6303643;20;3623281;-49
2024/03/12 05:56:42;;;;;;;;;48.50;40.50;;;;;7.65;100.00;98675.41;6307103;20;2848232;-50
2024/03/12 05:59:12;;;;;;;;;46.33;36.33;;;;;8.30;100.00;98682.66;6274770;20;3611727;-52
2024/03/12 06:01:40;;;;;;;;;26.50;23.00;;;;;7.83;100.00;98684.03;6306994;20;2826363;-50
2024/03/12 06:04:09;;;;;;;;;31.33;28.67;;;;;7.86;100.00;98674.97;6275864;20;2849380;-49
2024/03/12 06:06:39;;;;;;;;;42.50;36.00;;;;;8.16;100.00;98689.88;6307535;20;2846151;-50
2024/03/12 06:09:09;;;;;;;;;42.67;38.33;;;;;8.48;100.00;98696.63;6274942;20;2853537;-47
2024/03/12 06:11:39;;;;;;;;;44.33;36.00;;;;;9.20;100.00;98698.72;6313615;20;3605600;-47
2024/03/12 06:14:09;;;;;;;;;34.00;30.00;;;;;11.20;100.00;98712.16;6272900;20;2858769;-52
2024/03/12 06:16:37;;;;;;;;;28.00;21.50;;;;;15.61;77.40;98712.72;6306192;20;2862789;-48
2024/03/12 06:19:06;;;;;;;;;36.00;30.00;;;;;19.22;56.45;98727.22;6275484;20;3608643;-48
2024/03/12 06:21:36;;;;;;;;;29.00;26.33;;;;;20.31;51.48;98737.34;6275417;20;2860849;-48
2024/03/12 06:24:06;;;;;;;;;27.33;26.00;;;;;15.53;62.55;98727.84;6306699;20;3600274;-47
2024/03/12 06:26:36;;;;;;;;;22.00;18.50;;;;;10.92;90.27;98712.63;6274605;20;2831580;-50
2024/03/12 06:29:06;;;;;;;;;19.50;17.00;;;;;10.60;100.00;98718.69;6271837;20;2485720;-48
2024/03/12 06:31:34;;;;;;;;;19.50;19.00;;;;;10.50;100.00;98712.31;6276657;20;2837775;-51
2024/03/12 06:34:04;;;;;;;;;19.00;18.50;;;;;10.04;100.00;98715.78;6273874;20;2831656;-55
2024/03/12 06:36:32;;;;;;;;;17.67;13.00;;;;;10.71;100.00;98717.84;6273089;20;3544002;-53
2024/03/12 06:39:01;;;;;;;;;14.33;12.67;;;;;10.31;100.00;98723.59;6306187;20;3536742;-52
2024/03/12 06:41:31;;;;;;;;;11.00;11.00;;;;;10.17;100.00;98716.56;6273047;20;2792064;-52
2024/03/12 06:43:59;;;;;;;;;12.50;12.50;;;;;11.17;100.00;98720.47;6271736;20;2789964;-54
2024/03/12 06:46:27;;;;;;;;;10.00;10.00;;;;;11.49;100.00;98727.78;6274419;20;2798237;-52
2024/03/12 06:48:55;;;;;;;;;13.00;11.00;;;;;11.26;100.00;98726.09;6275773;20;2790025;-54
2024/03/12 06:51:22;;;;;;;;;12.00;12.00;;;;;11.37;100.00;98729.63;6280000;20;2794027;-53
2024/03/12 06:53:52;;;;;;;;;12.20;10.20;;;;;11.33;99.68;98738.06;6301862;20;2785055;-51
2024/03/12 06:56:21;;;;;;;;;21.00;19.50;;;;;11.48;100.00;98742.22;6273542;20;2498284;-51
2024/03/12 06:58:50;;;;;;;;;26.00;23.00;;;;;11.67;100.00;98743.41;6275682;20;2839854;-52
2024/03/12 07:01:20;;;;;;;;;25.67;23.00;;;;;11.42;100.00;98745.38;6271697;20;2841049;-50
2024/03/12 07:03:49;;;;;;;;;28.67;27.67;;;;;11.31;100.00;98746.22;6308378;20;3606548;-48
2024/03/12 07:06:21;;;;;;;;;27.00;26.00;;;;;11.78;98.49;98748.75;6275175;20;2839946;-51
2024/03/12 07:08:50;;;;;;;;;22.50;19.00;;;;;11.46;97.00;98749.53;6304265;20;2844133;-47
2024/03/12 07:11:19;;;;;;;;;23.00;20.00;;;;;11.60;98.14;98754.66;6274907;20;2829451;-51
2024/03/12 07:13:48;;;;;;;;;20.00;20.00;;;;;12.01;95.77;98760.38;6269985;20;2500737;-52
2024/03/12 07:16:19;;;;;;;;;23.33;22.67;;;;;11.48;95.07;98752.09;6275851;20;3567990;-51
2024/03/12 07:18:48;;;;;;;;;17.00;16.50;;;;;11.90;93.92;98766.63;6274743;20;2834680;-50
2024/03/12 07:21:17;;;;;;;;;19.00;19.00;;;;;11.80;95.01;98760.25;6275349;20;2831570;-49
2024/03/12 07:23:45;;;;;;;;;21.00;15.50;;;;;11.92;96.03;98766.50;6268957;20;2500470;-52
2024/03/12 07:26:13;;;;;;;;;17.00;15.50;;;;;12.10;91.22;98761.44;6272601;20;2823258;-49
2024/03/12 07:28:43;;;;;;;;;18.00;18.00;;;;;13.21;89.56;98775.31;6274527;20;2837788;-49
2024/03/12 07:31:12;;;;;;;;;16.00;16.00;;;;;13.23;88.07;98784.13;6273518;20;2500293;-51
2024/03/12 07:33:41;;;;;;;;;17.00;17.00;;;;;13.73;83.32;98780.69;6274009;20;2826596;-49
2024/03/12 07:36:10;;;;;;;;;19.50;14.50;;;;;12.64;86.49;98777.50;6273031;20;2492120;-49
2024/03/12 07:38:38;;;;;;;;;17.50;15.50;;;;;12.34;89.22;98780.91;6274406;20;2491967;-51
2024/03/12 07:41:08;;;;;;;;;19.33;16.00;;;;;12.08;92.37;98783.94;6279744;20;2827392;-48
2024/03/12 07:43:37;;;;;;;;;14.00;14.00;;;;;10.78;92.90;98783.53;6305332;20;2802499;-50
2024/03/12 07:46:05;;;;;;;;;15.00;15.00;;;;;11.67;96.58;98795.34;6276597;20;2806569;-51
2024/03/12 07:48:33;;;;;;;;;11.00;11.00;;;;;11.87;94.52;98796.44;6274665;20;2794059;-49
2024/03/12 07:51:01;;;;;;;;;12.00;11.33;;;;;11.77;93.45;98790.94;6273912;20;2790947;-46
2024/03/12 07:53:30;;;;;;;;;14.50;12.00;;;;;12.05;92.67;98794.09;6311302;20;2796105;-48
2024/03/12 07:56:00;;;;;;;;;9.00;9.00;;;;;12.18;89.96;98799.31;6279332;20;2754574;-51
2024/03/12 07:58:28;;;;;;;;;12.00;10.00;;;;;11.94;93.26;98797.66;6274417;20;2783656;-46
2024/03/12 08:00:56;;;;;;;;;12.00;12.00;;;;;13.00;87.20;98798.72;6278309;20;2795113;-47
2024/03/12 08:03:24;;;;;;;;;8.00;8.00;;;;;12.35;90.41;98792.53;6279644;20;2750291;-48
2024/03/12 08:05:53;;;;;;;;;9.67;9.67;;;;;11.82;88.46;98793.25;6273277;20;2767987;-49
2024/03/12 08:08:25;;;;;;;;;7.29;6.71;;;;;11.51;92.31;98787.66;6351085;20;1796138;-45
2024/03/12 08:10:57;;;;;;;;;8.20;7.00;;;;;11.69;90.07;98796.09;6331440;20;2746211;-47
2024/03/12 08:13:25;;;;;;;;;8.00;8.00;;;;;12.83;87.33;98806.41;6309463;20;2750287;-48
2024/03/12 08:15:54;;;;;;;;;11.00;9.00;;;;;13.50;80.57;98798.91;6275786;20;2770089;-45
2024/03/12 08:18:22;;;;;;;;;8.00;8.00;;;;;12.78;82.94;98808.63;6309197;20;2733636;-50
2024/03/12 08:20:50;;;;;;;;;6.50;6.50;;;;;12.35;87.28;98809.56;6277168;20;2748400;-50
2024/03/12 08:23:19;;;;;;;;;11.60;9.00;;;;;12.22;89.74;98803.47;6298788;20;2773390;-46
2024/03/12 08:25:49;;;;;;;;;9.40;8.60;;;;;11.77;90.81;98808.88;6301376;20;2736941;-49
2024/03/12 08:28:27;;;;;;;;;6.00;6.00;;;;;11.75;93.63;98805.50;6308445;20;2744061;-47
2024/03/12 08:30:55;;;;;;;;;8.50;7.00;;;;;12.07;90.49;98813.66;6277464;20;2741965;-46
2024/03/12 08:33:31;;;;;;;;;9.00;7.50;;;;;11.13;94.17;98801.44;6283899;20;2735768;-50
2024/03/12 08:35:59;;;;;;;;;9.00;9.00;;;;;11.67;97.12;98805.25;6277662;20;2748259;-49
2024/03/12 08:38:31;;;;;;;;;4.00;4.00;;;;;11.88;90.87;98808.94;6317653;20;3469041;-50
2024/03/12 08:40:58;;;;;;;;;3.00;3.00;;;;;12.17;88.31;98811.09;6310114;20;2729547;-49
2024/03/12 08:43:26;;;;;;;;;4.00;4.00;;;;;12.10;87.07;98815.25;6274478;20;2757466;-49
2024/03/12 08:45:54;;;;;;;;;7.00;7.00;;;;;13.02;90.31;98810.22;6285515;20;2636757;-51
2024/03/12 08:48:22;;;;;;;;;6.00;6.00;;;;;13.14;86.30;98811.88;6278505;20;2700311;-48
2024/03/12 08:50:49;;;;;;;;;8.50;8.50;;;;;12.81;86.57;98819.16;6278649;20;2746132;-50
2024/03/12 08:53:17;;;;;;;;;8.00;8.00;;;;;12.39;89.29;98813.69;6277622;20;2730624;-52
2024/03/12 08:55:47;;;;;;;;;6.00;6.00;;;;;11.14;95.25;98808.53;6300354;20;2744082;-51
2024/03/12 08:58:17;;;;;;;;;10.20;9.20;;;;;11.86;95.23;98811.72;6328511;20;2768455;-51
2024/03/12 09:00:45;;;;;;;;;8.33;8.33;;;;;11.70;95.44;98819.31;6276867;20;2752360;-49
2024/03/12 09:03:13;;;;;;;;;7.50;7.50;;;;;12.55;91.70;98818.66;6308800;20;2748360;-50
2024/03/12 09:05:41;;;;;;;;;11.00;8.50;;;;;12.39;90.40;98815.53;6276861;20;2773610;-50
2024/03/12 09:08:09;;;;;;;;;10.00;8.50;;;;;13.20;85.25;98827.50;6281211;20;2765055;-49
2024/03/12 09:10:37;;;;;;;;;8.50;8.00;;;;;12.71;88.56;98824.44;6282451;20;2748248;-51
2024/03/12 09:13:06;;;;;;;;;8.50;8.50;;;;;11.54;90.65;98827.72;6283537;20;2748271;-50
2024/03/12 09:15:34;;;;;;;;;6.00;5.00;;;;;11.25;95.27;98826.50;6278920;20;2735705;-48
2024/03/12 09:18:04;;;;;;;;;6.00;6.00;;;;;12.14;95.36;98825.66;6282896;20;2745133;-48
2024/03/12 09:20:36;;;;;;;;;4.50;4.50;;;;;11.95;91.50;98831.63;6280706;20;2744031;-50
2024/03/12 09:23:04;;;;;;;;;7.00;7.00;;;;;10.69;96.93;98829.88;6282530;20;2746167;-48
2024/03/12 09:25:32;;;;;;;;;25.50;25.50;;;;;11.97;94.13;98835.06;6277787;20;2642993;-50
2024/03/12 09:28:01;;;;;;;;;5.00;4.50;;;;;10.80;94.61;98829.06;6281412;20;2752375;-50
2024/03/12 09:30:34;;;;;;;;;4.00;3.00;;;;;11.35;97.40;98833.72;6322921;20;2472166;-48
2024/03/12 09:33:05;;;;;;;;;68.17;55.83;;;;;11.49;95.56;98831.75;6331492;20;3665922;-51
2024/03/12 09:35:32;;;;;;;;;4.50;3.00;;;;;11.41;93.91;98832.38;6279548;20;2739898;-51
2024/03/12 09:38:01;;;;;;;;;5.00;5.00;;;;;11.80;91.49;98832.88;6279502;20;2747162;-47
2024/03/12 09:40:28;;;;;;;;;4.00;4.00;;;;;12.20;89.23;98837.75;6280425;20;2752403;-45
2024/03/12 09:43:00;;;;;;;;;2.50;2.50;;;;;11.89;87.71;98840.22;6280393;20;2756622;-50
2024/03/12 09:45:29;;;;;;;;;2.00;2.00;;;;;12.49;85.68;98846.94;6277739;20;2734731;-47
2024/03/12 09:47:57;;;;;;;;;1.00;1.00;;;;;12.75;81.55;98846.63;6283385;20;2727388;-45
2024/03/12 09:50:25;;;;;;;;;1.00;1.00;;;;;12.12;78.24;98848.28;6281638;20;2737831;-47
2024/03/12 09:52:54;;;;;;;;;4.00;2.00;;;;;12.40;81.96;98849.53;6282463;20;2751316;-50
2024/03/12 09:55:23;;;;;;;;;2.00;2.00;;;;;11.68;82.23;98849.97;6279558;20;2737784;-47
2024/03/12 09:57:51;;;;;;;;;1.00;1.00;;;;;12.86;80.34;98851.94;6281622;20;2738837;-49
2024/03/12 10:00:22;;;;;;;;;1.00;1.00;;;;;12.61;80.25;98844.22;6282827;20;2732629;-47
2024/03/12 10:02:50;;;;;;;;;0.00;0.00;;;;;13.01;79.39;98857.88;6278936;20;2733855;-48
2024/03/12 10:05:21;;;;;;;;;1.00;1.00;;;;;13.23;76.42;98856.06;6296615;20;1803536;-46
2024/03/12 10:08:28;;;;;;;;;4.50;4.50;;;;;13.00;77.44;98855.31;6311069;20;2741991;-46
2024/03/12 10:11:02;;;;;;;;;1.60;1.60;;;;;12.81;78.82;98856.88;6312371;20;2458622;-48
2024/03/12 10:13:31;;;;;;;;;1.00;1.00;;;;;12.18;78.00;98850.44;6310683;20;2724303;-49
2024/03/12 10:16:03;;;;;;;;;1.50;1.00;;;;;13.17;75.94;98857.44;6281975;20;2726386;-48
2024/03/12 10:18:39;;;;;;;;;1.00;1.00;;;;;12.20;79.81;98851.19;6299046;20;1798308;-45
2024/03/12 10:21:06;;;;;;;;;1.00;1.00;;;;;12.70;77.35;98848.84;6312573;20;2728402;-50
2024/03/12 10:23:37;;;;;;;;;1.00;1.00;;;;;12.51;79.67;98854.91;6274782;20;2728531;-53
2024/03/12 10:26:17;;;;;;;;;1.00;1.00;;;;;12.83;77.51;98857.59;6298080;20;1809701;-47
2024/03/12 10:28:46;;;;;;;;;4.00;2.50;;;;;11.64;80.85;98855.59;6312922;20;2746120;-48
2024/03/12 10:31:14;;;;;;;;;3.00;3.00;;;;;12.13;79.97;98850.81;6280272;20;2754448;-48
2024/03/12 10:33:48;;;;;;;;;3.00;1.50;;;;;12.18;80.72;98855.84;6278682;20;2741955;-47
2024/03/12 10:36:30;;;;;;;;;4.00;3.00;;;;;11.77;81.74;98854.59;6277684;20;2756572;-45
2024/03/12 10:39:03;;;;;;;;;2.00;2.00;;;;;11.93;80.89;98851.56;6282534;20;2744098;-47
2024/03/12 10:41:34;;;;;;;;;3.00;3.00;;;;;12.80;79.58;98860.56;6280209;20;2741981;-48
2024/03/12 10:44:10;;;;;;;;;4.00;4.00;;;;;11.92;78.43;98857.94;6279203;20;2754483;-48
2024/03/12 10:46:44;;;;;;;;;5.50;3.00;;;;;12.66;78.82;98863.53;6282328;20;2746239;-47
2024/03/12 10:49:17;;;;;;;;;3.00;2.00;;;;;12.46;76.42;98866.06;6278817;20;2750686;-47
2024/03/12 10:51:45;;;;;;;;;2.00;2.00;;;;;13.12;77.55;98863.22;6277521;20;2746124;-47
2024/03/12 10:54:16;;;;;;;;;1.00;1.00;;;;;12.40;78.82;98861.19;6279187;20;2731554;-45
2024/03/12 10:56:47;;;;;;;;;1.00;1.00;;;;;12.65;75.28;98868.06;6281337;20;2731541;-47
2024/03/12 10:59:18;;;;;;;;;2.00;2.00;;;;;12.67;73.57;98859.88;6280259;20;2739889;-46
2024/03/12 11:01:48;;;;;;;;;1.00;1.00;;;;;12.98;73.30;98862.66;6297115;20;1799868;-48
2024/03/12 11:04:17;;;;;;;;;1.00;1.00;;;;;12.66;71.46;98863.53;6309963;20;2733637;-49
2024/03/12 11:06:47;;;;;;;;;0.50;0.50;;;;;13.34;71.93;98864.09;6280450;20;2735709;-44
2024/03/12 11:09:21;;;;;;;;;1.00;1.00;;;;;13.59;72.88;98862.84;6282808;20;2731635;-47
2024/03/12 11:11:49;;;;;;;;;1.00;1.00;;;;;13.27;72.27;98850.31;6282463;20;2728423;-47
2024/03/12 11:14:17;;;;;;;;;2.00;1.00;;;;;13.42;70.86;98852.66;6279845;20;2731641;-46
2024/03/12 11:16:45;;;;;;;;;1.00;1.00;;;;;12.82;72.80;98850.50;6279319;20;2731512;-48
2024/03/12 11:19:40;;;;;;;;;1.00;1.00;;;;;13.16;71.37;98850.31;6293461;20;1817832;-51
2024/03/12 11:22:11;;;;;;;;;1.00;1.00;;;;;12.56;72.19;98851.81;6309925;20;2728433;-52
2024/03/12 11:24:48;;;;;;;;;107.75;93.75;;;;;13.39;71.13;98849.22;6273460;20;3711863;-46